Surface observations / Europe / LIPB

Quebec | Canada | USA | France | UK | Europe | Elsewhere

Display: Info & Location for LIPB | Help decoding METAR

LIPB BOLZANO(CIV/IT-AFB) -- IY
Raw surface observations for station LIPB
LIPB 241050Z VRB01KT 9999 FEW060 22/10 Q1014=
LIPB 240950Z VRB02KT 9999 FEW060 20/08 Q1016=
LIPB 240850Z 15002KT CAVOK 19/09 Q1017=
LIPB 240750Z VRB02KT CAVOK 15/09 Q1017=
LIPB 240650Z VRB03KT CAVOK 11/10 Q1018=
LIPB 240550Z 19001KT CAVOK 08/07 Q1018=
LIPB 240450Z VRB01KT CAVOK 09/08 Q1018=
LIPB 240350Z VRB01KT CAVOK 09/08 Q1017=
LIPB 232050Z VRB02KT CAVOK 13/10 Q1017=
LIPB 231950Z VRB02KT CAVOK 14/10 Q1017=
LIPB 231850Z VRB01KT 9999 FEW100 16/10 Q1016=
LIPB 231750Z 15005KT 9999 FEW050 SCT110 20/09 Q1015=
LIPB 231650Z 13008KT 9999 FEW050CB 20/10 Q1014=
LIPB 231550Z 13008KT 9999 SCT050CB 21/10 Q1014=
LIPB 231450Z 19009KT 9999 SCT050CB 23/09 Q1014=
LIPB 231350Z 18009KT 9999 SCT050CB 25/10 Q1014=
LIPB 231250Z 16006KT 120V200 9999 FEW050TCU SCT070 24/10 Q1014=
LIPB 231150Z 17006KT 120V210 9999 FEW060 SCT085 22/10 Q1015=
LIPB 231050Z VRB02KT 9999 FEW060 SCT090 23/10 Q1016 RMK MON LIB=